Alakanuk, AK (99554)

2:29 PM AKDT on August 20, 2014 (GMT -0800)
Emmonak | Change Station
CLOSE
Current Station
Airport
Location: Emmonak,
Elevation: 13 ft
Nearby Weather Stations

Elev 13 ft 62.79 °N, 164.49 °W | Updated 13 minutes ago

Mostly Cloudy
Mostly Cloudy
57 °F
Feels Like 57 °F
N
13
Wind Variable Wind from West
Gusts 16 mph

Today
High -- | Low -- °F
--% Chance of Precip.
Yesterday
High -- | Low -- °F
Precip. -- in
7:13 AM 10:48 PM
Waning Crescent, 19% visible
Pressure 30.21 in
Visibility 10.0 miles
Clouds Scattered Clouds 3400 ft
Mostly Cloudy 7500 ft
Dew Point 45 °F
Humidity 63%
Rainfall 0.00 in
Snow Depth Not available.
UV 3 out of 12
Pollen Not available.
Air Quality Not available.
Flu Activity Not available.
METAR PAEM 202216Z AUTO 27011G14KT 10SM SCT034 BKN075 14/07 A3021 RMK AO1

More Conditions Fewer Conditions

Pressure 30.21 in
Visibility 10.0 miles
Clouds Scattered Clouds 3400 ft
Mostly Cloudy 7500 ft
Dew Point 45 °F
Humidity 63%
Rainfall 0.00 in
Snow Depth Not available.
UV 3 out of 12
Pollen Not available.
Air Quality Not available.
Flu Activity Not available.
METAR PAEM 202216Z AUTO 27011G14KT 10SM SCT034 BKN075 14/07 A3021 RMK AO1

More Conditions Fewer Conditions

10-Day Weather Forecast

Almanac

Astronomy

Aug. 20, 2014 Rise Set
Actual Time 7:13 AM AKDT 10:48 PM AKDT
Civil Twilight 6:17 AM AKDT 11:43 PM AKDT
Nautical Twilight 4:50 AM AKDT 1:07 AM AKDT
Astronomical Twilight Sun does not rise Sun does not rise
Moon 2:24 AM AKDT 8:17 PM AKDT
Length of Visible Light 17h 26m
Length of Day
15h 35m
Tomorrow will be 6m 4s shorter.
Waning Crescent, 19% of the Moon is Illuminated
Today
Waning Crescent
Aug 25
New
Sep 2
First Quarter
Sep 8
Full
Sep 15
Last Quarter

Today's Extremes

State Highs State Lows

Community

WunderPhotos

Upload Photos

1,745,779 photos uploaded!

Nearby

Snow Depth

Station Depth Elevation
Rocky Point 4 in 500 ft
Susitna Valley High 2 in 375 ft
Mcneil Canyon 1 in 1320 ft
Point Mackenzie 1 in 200 ft
MF Bradley River 308 in 2300 ft

Earthquake Activity

City Distance Mag. Time & Date
No recent earthquake activity has been reported nearby.
Minimum magnitude displayed is 2.5.

Coastal Water Temperatures

Place Temperature
No Stations Reporting

Nearby Weather Stations